Time;durP1;ratioP1;P1;durP2;ratioP2;P2;SDS_P1;SDS_P2;PMS_P1;PMS_P2;Temp;Humidity;BMP_temperature;BMP_pressure;BME280_temperature;BME280_humidity;BME280_pressure;Samples;Min_cycle;Max_cycle;Signal;HPM_P1;HPM_P2
2023/09/22 00:00:14;;;;;;;5.25;2.70;;;;;;;18.92;74.93;99781.69;7395600;19;20522;-67
2023/09/22 00:02:43;;;;;;;3.90;2.42;;;;;;;18.89;74.94;99780.25;7396101;19;20106;-67
2023/09/22 00:05:14;;;;;;;3.05;2.20;;;;;;;18.82;74.56;99782.00;7393886;19;20086;-70
2023/09/22 00:07:43;;;;;;;3.45;2.20;;;;;;;18.72;74.78;99798.41;7392902;19;20483;-70
2023/09/22 00:10:12;;;;;;;2.90;1.98;;;;;;;18.79;74.50;99798.47;7394567;19;20037;-70
2023/09/22 00:12:41;;;;;;;3.53;1.90;;;;;;;18.83;74.09;99805.13;7395240;19;20022;-69
2023/09/22 00:15:10;;;;;;;3.63;1.83;;;;;;;18.84;74.49;99817.50;7395281;19;20026;-69
2023/09/22 00:17:38;;;;;;;2.75;1.85;;;;;;;18.90;73.96;99821.31;7394704;19;20506;-66
2023/09/22 00:20:12;;;;;;;3.30;2.20;;;;;;;18.86;74.35;99814.66;7394974;19;20018;-66
2023/09/22 00:22:43;;;;;;;4.95;2.53;;;;;;;18.89;74.33;99811.59;7394887;19;20035;-66
2023/09/22 00:25:10;;;;;;;4.80;2.55;;;;;;;18.89;74.95;99815.13;7391569;19;20018;-66
2023/09/22 00:27:38;;;;;;;5.15;3.35;;;;;;;18.90;74.87;99816.78;7393603;19;20365;-66
2023/09/22 00:30:09;;;;;;;5.45;3.58;;;;;;;18.94;74.61;99806.50;7394196;19;20023;-67
2023/09/22 00:32:38;;;;;;;6.15;4.18;;;;;;;18.89;75.37;99833.06;7394266;19;20018;-69
2023/09/22 00:35:11;;;;;;;9.27;4.82;;;;;;;18.86;75.37;99833.44;7394175;19;20014;-69
2023/09/22 00:37:42;;;;;;;6.10;4.53;;;;;;;18.83;75.67;99826.59;7393779;19;20023;-67
2023/09/22 00:40:10;;;;;;;5.97;4.50;;;;;;;18.87;75.47;99830.56;7394184;19;20015;-66
2023/09/22 00:42:37;;;;;;;8.23;5.53;;;;;;;18.84;75.47;99828.25;7394175;19;20010;-65
2023/09/22 00:45:05;;;;;;;7.75;5.63;;;;;;;18.80;75.27;99826.13;7393536;19;20014;-66
2023/09/22 00:47:33;;;;;;;8.30;5.75;;;;;;;18.73;75.64;99836.78;7394450;19;20019;-66
2023/09/22 00:50:02;;;;;;;6.50;4.97;;;;;;;18.78;75.28;99837.06;7393074;19;20022;-70
2023/09/22 00:52:30;;;;;;;7.30;4.90;;;;;;;18.81;75.49;99843.88;7392178;19;20025;-69
2023/09/22 00:54:59;;;;;;;9.70;6.38;;;;;;;18.75;75.25;99840.94;7391680;19;20019;-69
2023/09/22 00:57:27;;;;;;;9.63;5.43;;;;;;;18.66;75.50;99838.53;7393948;19;20025;-69
2023/09/22 00:59:56;;;;;;;6.35;4.47;;;;;;;18.75;75.45;99834.75;7394746;19;20078;-69
2023/09/22 01:02:24;;;;;;;7.07;5.18;;;;;;;18.79;75.05;99836.03;7394288;19;20022;-69
2023/09/22 01:04:52;;;;;;;6.30;4.75;;;;;;;18.70;75.19;99823.75;7393331;19;20036;-69
2023/09/22 01:07:19;;;;;;;8.25;5.05;;;;;;;18.65;75.39;99824.28;7393487;19;20018;-69
2023/09/22 01:09:47;;;;;;;7.20;4.93;;;;;;;18.64;75.46;99841.41;7390700;19;20070;-69
2023/09/22 01:12:14;;;;;;;7.38;5.13;;;;;;;18.66;74.87;99836.69;7392926;19;20006;-69
2023/09/22 01:14:43;;;;;;;7.82;5.53;;;;;;;18.61;75.03;99849.81;7392507;19;20019;-69
2023/09/22 01:17:13;;;;;;;6.95;5.10;;;;;;;18.58;74.71;99852.88;7393319;19;20770;-69
2023/09/22 01:19:42;;;;;;;8.13;5.65;;;;;;;18.41;75.36;99851.44;7391979;19;20549;-69
2023/09/22 01:22:11;;;;;;;7.63;5.15;;;;;;;18.50;75.67;99852.97;7393478;19;20018;-69
2023/09/22 01:24:38;;;;;;;8.13;5.07;;;;;;;18.57;74.92;99856.56;7394140;19;20010;-69
2023/09/22 01:27:06;;;;;;;7.32;4.78;;;;;;;18.54;75.17;99856.94;7394286;19;20015;-69
2023/09/22 01:29:34;;;;;;;7.00;5.10;;;;;;;18.49;75.16;99854.00;7391568;19;20018;-69
2023/09/22 01:32:02;;;;;;;6.60;4.60;;;;;;;18.57;74.80;99853.91;7393822;19;20023;-69
2023/09/22 01:34:30;;;;;;;7.95;4.88;;;;;;;18.57;74.91;99853.91;7393340;19;20023;-68
2023/09/22 01:36:58;;;;;;;8.27;4.97;;;;;;;18.57;74.76;99858.44;7393001;19;20050;-68
2023/09/22 01:39:26;;;;;;;6.00;4.57;;;;;;;18.55;74.53;99849.75;7389188;19;20020;-68
2023/09/22 01:41:54;;;;;;;6.40;4.50;;;;;;;18.62;74.45;99856.00;7392649;19;20023;-68
2023/09/22 01:44:22;;;;;;;8.38;5.35;;;;;;;18.61;74.48;99867.75;7391988;19;20393;-68
2023/09/22 01:46:49;;;;;;;7.60;4.88;;;;;;;18.63;74.36;99858.53;7388788;19;20368;-68
2023/09/22 01:49:17;;;;;;;7.43;5.18;;;;;;;18.50;74.81;99863.69;7389779;19;20498;-69
2023/09/22 01:51:44;;;;;;;7.35;4.97;;;;;;;18.49;75.08;99864.72;7391493;19;20046;-69
2023/09/22 01:54:12;;;;;;;9.27;5.53;;;;;;;18.39;75.16;99861.50;7391719;19;20030;-69
2023/09/22 01:56:39;;;;;;;8.35;5.65;;;;;;;18.42;75.25;99859.28;7389654;19;20018;-69
2023/09/22 01:59:07;;;;;;;8.05;5.22;;;;;;;18.45;74.65;99860.75;7388401;19;20026;-69
2023/09/22 02:01:35;;;;;;;9.02;6.10;;;;;;;18.41;74.93;99848.75;7392158;19;20026;-69
2023/09/22 02:04:02;;;;;;;8.20;5.30;;;;;;;18.46;74.58;99852.50;7392075;19;20029;-70
2023/09/22 02:06:31;;;;;;;8.93;5.97;;;;;;;18.40;74.65;99853.28;7395093;19;20031;-70
2023/09/22 02:08:58;;;;;;;8.57;5.78;;;;;;;18.40;74.76;99853.28;7396977;19;20061;-70
2023/09/22 02:11:26;;;;;;;9.63;6.20;;;;;;;18.39;75.04;99866.84;7399657;19;20034;-69
2023/09/22 02:13:54;;;;;;;8.32;5.55;;;;;;;18.38;74.98;99873.25;7399625;19;20018;-70
2023/09/22 02:16:21;;;;;;;9.65;5.78;;;;;;;18.35;75.39;99881.66;7400426;19;20052;-69
2023/09/22 02:18:50;;;;;;;8.35;6.00;;;;;;;18.41;75.13;99875.56;7398752;19;20014;-69
2023/09/22 02:21:18;;;;;;;8.82;6.22;;;;;;;18.46;74.84;99884.69;7401035;19;20082;-68
2023/09/22 02:23:45;;;;;;;9.07;5.93;;;;;;;18.45;74.67;99868.81;7399410;19;20014;-68
2023/09/22 02:26:13;;;;;;;8.88;6.32;;;;;;;18.45;74.59;99868.81;7397106;19;20018;-68
2023/09/22 02:28:40;;;;;;;10.52;5.88;;;;;;;18.42;74.90;99875.34;7396333;19;20010;-68
2023/09/22 02:31:08;;;;;;;8.45;6.22;;;;;;;18.43;74.47;99892.28;7398225;19;20038;-68
2023/09/22 02:33:36;;;;;;;9.15;6.03;;;;;;;18.39;74.69;99893.66;7397990;19;20079;-66
2023/09/22 02:36:05;;;;;;;9.05;6.32;;;;;;;18.40;75.03;99885.44;7398190;19;20022;-67
2023/09/22 02:38:32;;;;;;;10.52;6.28;;;;;;;18.37;74.76;99885.00;7396102;19;20376;-66
2023/09/22 02:41:00;;;;;;;9.70;5.78;;;;;;;18.32;74.92;99898.94;7396415;19;20030;-67
2023/09/22 02:43:28;;;;;;;8.60;6.22;;;;;;;18.33;75.10;99895.25;7396730;19;20371;-67
2023/09/22 02:45:55;;;;;;;8.63;6.40;;;;;;;18.32;75.01;99892.75;7396559;19;20007;-68
2023/09/22 02:48:23;;;;;;;11.30;6.15;;;;;;;18.34;75.09;99896.06;7394904;19;20018;-67
2023/09/22 02:50:51;;;;;;;9.02;6.63;;;;;;;18.30;75.00;99900.13;7397407;19;20046;-67
2023/09/22 02:53:18;;;;;;;10.02;6.35;;;;;;;18.31;74.78;99909.84;7397401;19;20023;-67
2023/09/22 02:55:46;;;;;;;10.75;6.60;;;;;;;18.31;74.74;99912.53;7397794;19;20011;-70
2023/09/22 02:58:14;;;;;;;10.57;6.97;;;;;;;18.33;74.27;99915.88;7396494;19;20011;-70
2023/09/22 03:00:45;;;;;;;10.73;7.13;;;;;;;18.16;75.05;99904.47;7397292;19;20039;-70
2023/09/22 03:03:13;;;;;;;11.02;6.53;;;;;;;18.22;74.54;99895.69;7397265;19;20077;-72
2023/09/22 03:05:40;;;;;;;11.48;6.70;;;;;;;18.27;74.05;99893.28;7396526;19;20038;-72
2023/09/22 03:08:08;;;;;;;11.40;7.03;;;;;;;18.27;74.18;99891.44;7394216;19;20015;-72
2023/09/22 03:10:38;;;;;;;11.90;6.90;;;;;;;18.22;74.03;99888.50;7396826;19;20018;-72
2023/09/22 03:13:06;;;;;;;11.10;7.10;;;;;;;18.09;74.47;99880.28;7395419;19;20070;-72
2023/09/22 03:15:35;;;;;;;11.63;7.32;;;;;;;18.07;74.31;99884.97;7396722;19;20152;-72
2023/09/22 03:18:04;;;;;;;9.65;6.05;;;;;;;18.15;74.04;99870.66;7393530;19;20043;-72
2023/09/22 03:20:31;;;;;;;9.52;6.38;;;;;;;18.15;74.18;99876.84;7396903;19;20026;-72
2023/09/22 03:22:59;;;;;;;12.18;7.13;;;;;;;18.20;73.65;99879.81;7395200;19;20010;-72
2023/09/22 03:25:26;;;;;;;9.65;5.85;;;;;;;18.23;73.61;99884.78;7395667;19;20042;-72
2023/09/22 03:27:54;;;;;;;10.15;6.60;;;;;;;18.21;73.77;99886.84;7395312;19;20494;-72
2023/09/22 03:30:22;;;;;;;10.15;6.63;;;;;;;18.20;73.49;99881.63;7396163;19;20018;-72
2023/09/22 03:32:52;;;;;;;10.90;5.95;;;;;;;18.19;73.88;99888.84;7396166;19;20365;-72
2023/09/22 03:35:21;;;;;;;9.95;5.80;;;;;;;18.12;73.96;99887.91;7396849;19;20015;-72
2023/09/22 03:37:49;;;;;;;9.68;6.25;;;;;;;18.10;73.48;99878.41;7396006;19;20351;-72
2023/09/22 03:40:30;;;;;;;10.93;6.55;;;;;;;18.13;73.63;99875.38;7397265;19;20018;-72
2023/09/22 03:43:01;;;;;;;9.95;6.32;;;;;;;18.15;73.11;99884.03;7395723;19;20024;-71
2023/09/22 03:45:29;;;;;;;10.43;6.63;;;;;;;18.21;73.25;99888.69;7395841;19;20015;-71
2023/09/22 03:47:57;;;;;;;10.18;6.20;;;;;;;18.09;73.39;99888.31;7395350;19;20015;-65
2023/09/22 03:50:25;;;;;;;10.60;6.03;;;;;;;18.06;73.47;99880.63;7395419;19;20015;-65
2023/09/22 03:52:52;;;;;;;10.40;6.50;;;;;;;18.15;73.38;99884.03;7395002;19;20014;-68
2023/09/22 03:55:21;;;;;;;10.30;7.05;;;;;;;18.20;72.89;99887.84;7394270;19;20022;-69
2023/09/22 03:57:49;;;;;;;10.35;7.10;;;;;;;18.19;73.00;99888.03;7394609;19;20026;-69
2023/09/22 04:00:18;;;;;;;11.55;7.22;;;;;;;18.13;73.04;99891.44;7395662;19;20022;-69
2023/09/22 04:02:46;;;;;;;9.77;6.55;;;;;;;18.14;73.07;99883.22;7394992;19;20015;-69
2023/09/22 04:05:15;;;;;;;10.85;6.88;;;;;;;18.17;72.89;99884.72;7395320;19;20035;-71
2023/09/22 04:07:43;;;;;;;10.68;7.47;;;;;;;18.08;73.21;99885.78;7390936;19;20029;-66
2023/09/22 04:10:11;;;;;;;11.50;7.47;;;;;;;18.10;73.17;99889.97;7394452;19;20029;-66
2023/09/22 04:12:38;;;;;;;12.43;8.00;;;;;;;18.15;73.12;99884.03;7395445;19;20019;-66
2023/09/22 04:15:08;;;;;;;10.23;7.13;;;;;;;18.12;73.21;99892.44;7395278;19;20040;-66
2023/09/22 04:17:37;;;;;;;11.43;7.60;;;;;;;18.09;73.12;99899.03;7394434;19;20018;-69
2023/09/22 04:20:08;;;;;;;10.85;7.38;;;;;;;18.04;73.26;99896.03;7392739;19;20026;-69
2023/09/22 04:22:36;;;;;;;10.00;6.78;;;;;;;18.05;73.28;99894.19;7394657;19;20014;-67
2023/09/22 04:25:19;;;;;;;10.30;7.03;;;;;;;18.11;73.04;99877.41;7395234;19;20090;-67
2023/09/22 04:27:53;;;;;;;11.38;7.72;;;;;;;18.06;72.97;99880.63;7391780;19;20050;-69
2023/09/22 04:30:22;;;;;;;12.40;7.20;;;;;;;18.03;72.90;99889.03;7394411;19;20014;-70
2023/09/22 04:32:51;;;;;;;10.35;6.57;;;;;;;18.09;72.68;99887.47;7394234;19;20035;-65
2023/09/22 04:35:20;;;;;;;10.27;6.88;;;;;;;17.96;73.27;99894.28;7394171;19;20546;-68
2023/09/22 04:37:48;;;;;;;10.13;6.55;;;;;;;17.93;73.24;99897.34;7393043;19;20100;-68
2023/09/22 04:40:24;;;;;;;10.40;7.25;;;;;;;17.94;72.93;99903.53;7394329;19;20021;-68
2023/09/22 04:42:53;;;;;;;11.07;7.70;;;;;;;17.96;72.61;99904.16;7392621;19;20026;-68
2023/09/22 04:45:21;;;;;;;13.68;7.50;;;;;;;17.91;72.94;99901.22;7393674;19;20033;-66
2023/09/22 04:47:52;;;;;;;10.85;7.38;;;;;;;17.95;72.64;99908.69;7391453;19;20374;-67
2023/09/22 04:50:21;;;;;;;11.70;7.38;;;;;;;17.91;72.86;99911.91;7393580;19;20018;-67
2023/09/22 04:52:49;;;;;;;11.13;7.20;;;;;;;17.77;73.20;99911.69;7393315;19;20381;-69
2023/09/22 04:55:18;;;;;;;10.50;6.88;;;;;;;17.81;73.30;99908.66;7393260;19;20015;-67
2023/09/22 04:57:47;;;;;;;11.13;6.97;;;;;;;17.87;73.00;99911.44;7392258;19;20029;-67
2023/09/22 05:00:16;;;;;;;10.45;6.50;;;;;;;17.98;72.61;99915.53;7393374;19;20023;-68
2023/09/22 05:02:44;;;;;;;9.27;6.43;;;;;;;17.98;72.53;99934.28;7394126;19;20031;-68
2023/09/22 05:05:12;;;;;;;10.23;6.45;;;;;;;17.96;72.70;99936.31;7392798;19;20018;-67
2023/09/22 05:07:40;;;;;;;9.63;6.57;;;;;;;17.92;72.58;99935.84;7389327;19;20487;-67
2023/09/22 05:10:09;;;;;;;10.25;6.63;;;;;;;17.95;72.42;99934.66;7391377;19;20046;-66
2023/09/22 05:12:36;;;;;;;10.18;6.20;;;;;;;17.85;72.88;99945.59;7392800;19;20015;-66
2023/09/22 05:15:05;;;;;;;8.90;5.95;;;;;;;17.88;72.60;99955.13;7393069;19;20078;-67
2023/09/22 05:17:33;;;;;;;11.50;6.30;;;;;;;17.90;72.59;99962.00;7392388;19;20019;-67
2023/09/22 05:20:04;;;;;;;15.57;7.10;;;;;;;17.83;72.83;99961.03;7390802;19;20018;-67
2023/09/22 05:22:31;;;;;;;10.15;6.60;;;;;;;17.82;72.75;99950.50;7392436;19;20086;-67
2023/09/22 05:24:59;;;;;;;10.30;6.93;;;;;;;17.68;73.44;99958.28;7390888;19;20019;-67
2023/09/22 05:27:26;;;;;;;12.40;7.13;;;;;;;17.64;73.51;99951.63;7391580;19;20015;-67
2023/09/22 05:29:54;;;;;;;9.20;6.15;;;;;;;17.58;73.71;99948.81;7388908;19;20086;-67
2023/09/22 05:32:22;;;;;;;9.25;5.65;;;;;;;17.68;73.42;99952.09;7392271;19;20363;-66
2023/09/22 05:34:51;;;;;;;8.55;5.70;;;;;;;17.80;72.90;99944.50;7392557;19;20026;-66
2023/09/22 05:37:19;;;;;;;8.48;6.30;;;;;;;17.75;72.52;99942.34;7391890;19;20015;-66
2023/09/22 05:39:46;;;;;;;11.43;5.93;;;;;;;17.56;73.23;99956.19;7388787;19;20014;-66
2023/09/22 05:42:14;;;;;;;10.90;6.28;;;;;;;17.65;72.57;99961.31;7392086;19;20551;-66
2023/09/22 05:44:43;;;;;;;9.90;6.45;;;;;;;17.72;72.60;99974.81;7392349;19;20483;-66
2023/09/22 05:47:12;;;;;;;8.98;5.82;;;;;;;17.73;72.19;99979.97;7389002;19;20376;-66
2023/09/22 05:49:40;;;;;;;8.80;6.05;;;;;;;17.71;72.32;99987.38;7390013;19;20025;-67
2023/09/22 05:52:07;;;;;;;9.57;5.93;;;;;;;17.78;71.96;99983.00;7390948;19;20471;-66
2023/09/22 05:54:35;;;;;;;9.82;6.20;;;;;;;17.73;71.66;99989.88;7391592;19;20371;-66
2023/09/22 05:57:02;;;;;;;7.85;5.55;;;;;;;17.54;72.16;100000.03;7391656;19;20019;-66
2023/09/22 05:59:30;;;;;;;9.32;6.30;;;;;;;17.48;72.36;99991.88;7389462;19;20018;-64
2023/09/22 06:01:59;;;;;;;10.88;6.13;;;;;;;17.51;72.23;99989.69;7391869;19;20023;-64
2023/09/22 06:04:29;;;;;;;8.90;5.88;;;;;;;17.60;71.45;99997.66;7391588;19;20026;-64
2023/09/22 06:06:58;;;;;;;8.35;6.00;;;;;;;17.69;71.22;99996.59;7390987;19;20050;-68
2023/09/22 06:09:25;;;;;;;10.88;6.15;;;;;;;17.67;71.13;99998.63;7389573;19;20380;-66
2023/09/22 06:11:53;;;;;;;11.38;6.25;;;;;;;17.62;71.47;100012.53;7391744;19;20089;-65
2023/09/22 06:14:21;;;;;;;11.25;6.57;;;;;;;17.58;71.25;100007.72;7391407;19;20019;-67
2023/09/22 06:16:49;;;;;;;14.02;6.40;;;;;;;17.63;71.39;100005.31;7392034;19;20029;-67
2023/09/22 06:19:16;;;;;;;12.38;6.72;;;;;;;17.79;70.88;100007.94;7389830;19;20015;-67
2023/09/22 06:21:44;;;;;;;11.52;6.38;;;;;;;17.74;70.96;100005.78;7391525;19;20018;-70
2023/09/22 06:24:12;;;;;;;11.18;7.20;;;;;;;17.69;71.04;100015.34;7390795;19;20416;-68
2023/09/22 06:26:39;;;;;;;9.88;6.60;;;;;;;17.73;70.53;100030.88;7390861;19;20042;-70
2023/09/22 06:29:07;;;;;;;10.98;6.72;;;;;;;17.63;71.20;100050.84;7388601;19;20019;-70
2023/09/22 06:31:35;;;;;;;11.10;6.18;;;;;;;17.66;70.99;100048.66;7391311;19;20022;-70
2023/09/22 06:34:04;;;;;;;9.10;6.32;;;;;;;17.59;71.40;100061.09;7390809;19;20018;-70
2023/09/22 06:36:32;;;;;;;10.73;6.25;;;;;;;17.58;71.25;100062.09;7390881;19;20018;-68
2023/09/22 06:39:04;;;;;;;9.52;6.20;;;;;;;17.45;71.69;100057.31;7387302;19;20090;-68
2023/09/22 06:41:32;;;;;;;8.52;5.63;;;;;;;17.55;71.34;100051.72;7391061;19;20621;-70
2023/09/22 06:44:00;;;;;;;8.43;5.70;;;;;;;17.64;71.06;100053.38;7388958;19;20033;-68
2023/09/22 06:46:28;;;;;;;9.50;5.35;;;;;;;17.71;70.55;100048.97;7390551;19;20377;-69
2023/09/22 06:48:59;;;;;;;9.32;5.78;;;;;;;17.73;70.47;100060.31;7388291;19;20019;-71
2023/09/22 06:51:30;;;;;;;10.30;5.80;;;;;;;17.76;70.22;100060.00;7390772;19;20023;-70
2023/09/22 06:53:58;;;;;;;8.55;5.18;;;;;;;17.74;70.14;100061.16;7396809;19;20019;-73
2023/09/22 06:56:25;;;;;;;10.13;5.85;;;;;;;17.70;70.14;100081.28;7395778;19;20014;-73
2023/09/22 06:59:12;;;;;;;11.23;6.18;;;;;;;17.63;70.23;100093.69;7395288;19;20032;-68
2023/09/22 07:01:40;;;;;;;12.20;6.10;;;;;;;17.69;69.91;100109.91;7396960;19;20033;-68
2023/09/22 07:04:10;;;;;;;10.48;6.45;;;;;;;17.71;69.33;100102.53;7397227;19;20010;-70
2023/09/22 07:06:39;;;;;;;10.60;6.20;;;;;;;17.71;69.33;100118.59;7396848;19;20015;-68
2023/09/22 07:09:11;;;;;;;11.43;6.20;;;;;;;17.57;69.43;100110.47;7395324;19;20042;-66
2023/09/22 07:11:40;;;;;;;11.20;6.47;;;;;;;17.57;69.52;100107.78;7397180;19;20356;-68
2023/09/22 07:14:08;;;;;;;12.68;6.95;;;;;;;17.53;69.05;100110.81;7396453;19;20033;-65
2023/09/22 07:16:36;;;;;;;10.98;6.15;;;;;;;17.46;69.24;100103.66;7396724;19;20014;-65
2023/09/22 07:19:04;;;;;;;11.20;6.45;;;;;;;17.58;68.63;100104.09;7394885;19;20038;-65
2023/09/22 07:21:32;;;;;;;10.30;6.20;;;;;;;17.62;68.13;100095.53;7397718;19;20047;-65
2023/09/22 07:23:59;;;;;;;11.35;6.43;;;;;;;17.53;68.21;100097.44;7394954;19;20022;-66
2023/09/22 07:26:27;;;;;;;11.23;6.10;;;;;;;17.51;68.35;100103.94;7397263;19;20475;-66
2023/09/22 07:28:55;;;;;;;15.40;6.53;;;;;;;17.59;68.15;100113.78;7390732;19;20016;-65
2023/09/22 07:31:28;;;;;;;12.77;6.45;;;;;;;17.66;68.17;100123.63;7399275;19;20074;-65
2023/09/22 07:33:59;;;;;;;10.63;6.13;;;;;;;17.71;67.46;100129.31;7397153;19;20021;-65
2023/09/22 07:36:26;;;;;;;10.07;5.97;;;;;;;17.69;67.31;100125.97;7396299;19;20019;-65
2023/09/22 07:38:54;;;;;;;10.88;6.03;;;;;;;17.62;67.67;100127.66;7394440;19;20018;-68
2023/09/22 07:41:21;;;;;;;10.40;5.90;;;;;;;17.57;67.86;100131.88;7397356;19;20042;-66
2023/09/22 07:43:49;;;;;;;10.68;6.60;;;;;;;17.38;68.02;100139.31;7397460;19;20053;-65
2023/09/22 07:46:16;;;;;;;11.38;6.10;;;;;;;17.36;68.28;100133.31;7395823;19;20026;-65
2023/09/22 07:48:45;;;;;;;10.85;5.63;;;;;;;17.39;68.34;100129.44;7393387;19;20038;-65
2023/09/22 07:51:13;;;;;;;11.82;5.88;;;;;;;17.38;68.12;100133.97;7395750;19;20039;-65
2023/09/22 07:53:44;;;;;;;10.18;5.30;;;;;;;17.38;67.89;100136.63;7395826;19;20619;-65
2023/09/22 07:56:12;;;;;;;10.75;5.78;;;;;;;17.41;67.97;100138.16;7395524;19;20368;-65
2023/09/22 07:58:41;;;;;;;10.20;5.88;;;;;;;17.39;67.95;100135.63;7393474;19;20021;-65
2023/09/22 08:01:12;;;;;;;9.73;5.65;;;;;;;17.49;67.71;100144.31;7395007;19;20011;-65
2023/09/22 08:03:40;;;;;;;10.65;5.05;;;;;;;17.56;67.63;100133.75;7394257;19;20026;-65
2023/09/22 08:06:07;;;;;;;9.80;5.25;;;;;;;17.54;67.51;100141.09;7395113;19;20089;-65
2023/09/22 08:08:35;;;;;;;7.80;4.80;;;;;;;17.66;67.59;100142.38;7392700;19;20014;-65
2023/09/22 08:11:04;;;;;;;12.98;5.40;;;;;;;17.72;67.10;100160.44;7394840;19;20025;-65
2023/09/22 08:13:33;;;;;;;10.30;5.18;;;;;;;17.69;67.02;100150.06;7395217;19;20022;-65
2023/09/22 08:16:06;;;;;;;10.15;5.10;;;;;;;17.61;67.32;100149.28;7394740;19;20078;-65
2023/09/22 08:18:38;;;;;;;10.95;5.05;;;;;;;17.60;67.41;100161.84;7392819;19;20018;-65
2023/09/22 08:21:06;;;;;;;9.07;4.50;;;;;;;17.66;67.07;100166.47;7393084;19;20021;-65
2023/09/22 08:23:33;;;;;;;9.88;4.85;;;;;;;17.63;67.18;100174.88;7394423;19;20015;-65
2023/09/22 08:26:17;;;;;;;8.48;4.10;;;;;;;17.65;67.18;100177.38;7394018;19;20037;-65
2023/09/22 08:28:45;;;;;;;10.20;4.40;;;;;;;17.67;67.38;100192.28;7392207;19;20022;-65
2023/09/22 08:31:13;;;;;;;11.20;5.00;;;;;;;17.69;67.34;100182.22;7393976;19;20023;-65
2023/09/22 08:33:41;;;;;;;7.50;4.22;;;;;;;17.68;67.98;100179.72;7394622;19;20018;-65
2023/09/22 08:36:09;;;;;;;7.65;3.95;;;;;;;17.67;67.65;100181.56;7394173;19;20018;-66
2023/09/22 08:38:36;;;;;;;8.73;4.38;;;;;;;17.77;66.90;100173.34;7391910;19;20499;-66
2023/09/22 08:41:05;;;;;;;10.38;4.35;;;;;;;17.96;66.44;100182.78;7393442;19;20514;-66
2023/09/22 08:43:35;;;;;;;10.02;4.13;;;;;;;17.83;66.82;100182.53;7393715;19;20103;-66
2023/09/22 08:46:02;;;;;;;11.13;4.50;;;;;;;17.79;66.97;100184.72;7392325;19;20019;-66
2023/09/22 08:48:30;;;;;;;9.32;3.97;;;;;;;17.87;66.92;100194.56;7391816;19;20105;-66
2023/09/22 08:50:58;;;;;;;10.60;4.60;;;;;;;17.89;66.33;100198.72;7393944;19;20018;-66
2023/09/22 08:53:27;;;;;;;10.52;5.22;;;;;;;17.84;66.66;100190.38;7392853;19;20479;-66
2023/09/22 08:55:55;;;;;;;11.02;5.78;;;;;;;17.88;66.29;100198.91;7393045;19;20014;-66
2023/09/22 08:58:22;;;;;;;9.70;5.03;;;;;;;17.97;66.24;100190.69;7391747;19;20019;-66
2023/09/22 09:00:51;;;;;;;18.58;5.20;;;;;;;18.06;66.16;100188.78;7392982;19;20037;-66
2023/09/22 09:03:20;;;;;;;9.50;4.75;;;;;;;18.00;66.06;100195.66;7392893;19;20025;-65
2023/09/22 09:05:49;;;;;;;8.77;4.60;;;;;;;18.03;66.26;100194.47;7393112;19;20373;-64
2023/09/22 09:08:21;;;;;;;11.30;5.20;;;;;;;18.10;66.11;100200.81;7391143;19;20042;-63
2023/09/22 09:10:49;;;;;;;11.88;4.90;;;;;;;18.08;65.95;100196.63;7392751;19;20018;-63
2023/09/22 09:13:19;;;;;;;8.88;4.72;;;;;;;18.17;66.29;100204.47;7392947;19;20018;-63
2023/09/22 09:15:53;;;;;;;8.98;4.97;;;;;;;18.13;66.31;100205.84;7390733;19;20046;-64
2023/09/22 09:18:24;;;;;;;10.10;4.68;;;;;;;18.09;66.72;100209.03;7391565;19;20029;-64
2023/09/22 09:21:15;;;;;;;10.15;4.70;;;;;;;18.03;65.91;100207.88;7393466;19;20014;-65
2023/09/22 09:23:55;;;;;;;11.25;4.50;;;;;;;17.95;66.72;100216.78;7392603;19;20479;-65
2023/09/22 09:26:31;;;;;;;9.00;4.32;;;;;;;18.08;66.16;100218.06;7392459;19;20094;-65
2023/09/22 09:28:59;;;;;;;9.35;4.38;;;;;;;18.05;65.91;100219.28;7389925;19;20019;-65
2023/09/22 09:31:46;;;;;;;8.95;4.10;;;;;;;18.22;65.53;100222.69;7390514;19;20434;-65
2023/09/22 09:34:16;;;;;;;9.50;4.50;;;;;;;18.10;65.86;100216.06;7392257;19;20526;-65
2023/09/22 09:36:56;;;;;;;7.65;4.10;;;;;;;17.92;66.69;100211.78;7390243;19;20038;-64
2023/09/22 09:39:52;;;;;;;7.95;4.18;;;;;;;18.02;66.43;100207.06;7389424;19;20509;-64
2023/09/22 09:42:23;;;;;;;8.50;3.70;;;;;;;17.95;66.63;100214.13;7390397;19;20011;-65
2023/09/22 09:44:54;;;;;;;8.73;3.53;;;;;;;18.06;66.88;100220.94;7391862;19;20074;-65
2023/09/22 09:47:34;;;;;;;7.72;3.22;;;;;;;18.18;66.48;100224.06;7391254;19;20035;-65
2023/09/22 09:50:04;;;;;;;7.28;3.70;;;;;;;18.11;66.32;100231.94;7391087;19;20032;-65
2023/09/22 09:52:32;;;;;;;6.95;3.00;;;;;;;18.13;66.31;100227.28;7391428;19;20531;-65
2023/09/22 09:55:09;;;;;;;7.50;3.70;;;;;;;18.19;66.06;100225.72;7391423;19;20018;-65
2023/09/22 09:57:39;;;;;;;6.07;3.40;;;;;;;18.30;65.83;100225.31;7391155;19;20336;-65
2023/09/22 10:00:35;;;;;;;6.18;3.35;;;;;;;18.45;65.43;100222.72;7390811;19;20421;-65
2023/09/22 10:02:59;;;;;;;9.13;3.53;;;;;;;18.58;65.21;100214.09;7391374;19;20040;-65
2023/09/22 10:05:27;;;;;;;6.47;3.30;;;;;;;18.65;64.86;100209.69;7392234;19;20019;-65
2023/09/22 10:07:58;;;;;;;6.63;3.22;;;;;;;18.62;64.43;100199.31;7390107;19;20018;-65
2023/09/22 10:10:28;;;;;;;5.35;2.80;;;;;;;18.50;64.59;100207.75;7391161;19;20033;-65
2023/09/22 10:12:55;;;;;;;6.57;2.90;;;;;;;18.53;64.30;100201.22;7391300;19;20034;-65
2023/09/22 10:15:53;;;;;;;8.40;2.70;;;;;;;18.70;63.27;100200.13;7391519;19;20126;-65
2023/09/22 10:18:23;;;;;;;5.90;2.22;;;;;;;18.68;63.27;100202.09;7389579;19;20483;-64
2023/09/22 10:20:51;;;;;;;5.65;2.42;;;;;;;18.78;63.19;100201.09;7391561;19;20368;-63
2023/09/22 10:23:25;;;;;;;6.15;2.38;;;;;;;18.82;63.38;100203.22;7395616;19;20375;-64
2023/09/22 10:26:12;;;;;;;;;;;;;;;18.85;63.70;100202.88;7397668;19;20642;-65
2023/09/22 10:28:40;;;;;;;4.68;2.40;;;;;;;18.81;63.86;100198.88;7399990;19;19915;-65
2023/09/22 10:31:08;;;;;;;5.40;2.13;;;;;;;19.14;62.86;100206.63;7398128;19;20522;-65
2023/09/22 10:33:37;;;;;;;5.00;2.22;;;;;;;19.12;61.63;100217.56;7398290;19;20483;-65
2023/09/22 10:36:04;;;;;;;7.47;2.20;;;;;;;19.00;61.93;100218.97;7398033;19;20023;-65
2023/09/22 10:38:51;;;;;;;4.53;2.05;;;;;;;19.18;60.98;100224.84;7396054;19;20019;-65
2023/09/22 10:41:19;;;;;;;6.50;2.00;;;;;;;19.04;61.40;100228.38;7396435;19;20467;-65
2023/09/22 10:43:58;;;;;;;5.45;1.92;;;;;;;19.07;61.39;100217.25;7397584;19;20045;-65
2023/09/22 10:46:26;;;;;;;4.30;2.30;;;;;;;18.97;61.67;100220.19;7397498;19;20023;-65
2023/09/22 10:48:54;;;;;;;5.63;2.30;;;;;;;18.95;61.35;100227.59;7393717;19;20522;-65
2023/09/22 10:51:22;;;;;;;4.88;2.20;;;;;;;19.19;60.58;100231.06;7397822;19;20521;-65
2023/09/22 10:53:56;;;;;;;6.43;2.42;;;;;;;19.32;59.80;100230.44;7397592;19;20498;-65
2023/09/22 10:56:24;;;;;;;5.53;1.60;;;;;;;19.42;59.23;100220.25;7397546;19;20562;-64
2023/09/22 10:58:53;;;;;;;5.32;1.77;;;;;;;19.51;58.77;100218.34;7395048;19;20104;-65
2023/09/22 11:01:22;;;;;;;6.20;2.05;;;;;;;19.45;59.05;100211.84;7396870;19;20027;-65
2023/09/22 11:03:53;;;;;;;7.28;1.75;;;;;;;19.45;59.23;100204.63;7397535;19;20022;-65
2023/09/22 11:06:21;;;;;;;4.78;1.55;;;;;;;19.45;58.53;100203.78;7397784;19;20018;-65
2023/09/22 11:08:53;;;;;;;5.13;1.88;;;;;;;19.54;58.56;100205.38;7394603;19;20022;-65
2023/09/22 11:11:21;;;;;;;4.63;1.80;;;;;;;19.57;58.73;100213.03;7396676;19;20502;-65
2023/09/22 11:13:56;;;;;;;3.22;1.80;;;;;;;19.78;57.74;100219.59;7396081;19;20047;-65
2023/09/22 11:16:24;;;;;;;4.72;1.70;;;;;;;19.77;57.36;100226.81;7397425;19;20022;-65
2023/09/22 11:19:05;;;;;;;4.28;1.60;;;;;;;19.86;56.54;100230.22;7394603;19;20033;-65
2023/09/22 11:21:39;;;;;;;4.07;1.73;;;;;;;19.67;56.70;100219.00;7396413;19;20098;-65
2023/09/22 11:24:10;;;;;;;3.38;1.60;;;;;;;19.70;56.87;100232.09;7396351;19;20045;-64
2023/09/22 11:26:41;;;;;;;4.20;1.58;;;;;;;19.63;56.68;100241.91;7396266;19;20018;-65
2023/09/22 11:29:09;;;;;;;5.00;1.52;;;;;;;19.70;56.60;100228.56;7392185;19;20030;-65
2023/09/22 11:31:50;;;;;;;4.78;1.60;;;;;;;20.02;55.63;100238.09;7394767;19;20332;-65
2023/09/22 11:34:23;;;;;;;6.40;2.00;;;;;;;19.89;56.12;100243.31;7394754;19;20018;-64
2023/09/22 11:36:51;;;;;;;4.85;1.50;;;;;;;19.92;56.26;100235.69;7396443;19;20018;-64